Time;durP1;ratioP1;P1;durP2;ratioP2;P2;SDS_P1;SDS_P2;PMS_P1;PMS_P2;Temp;Humidity;BMP_temperature;BMP_pressure;BME280_temperature;BME280_humidity;BME280_pressure;Samples;Min_cycle;Max_cycle;Signal;HPM_P1;HPM_P2
2021/03/09 00:02:15;;;;;;;19.92;13.57;;;2.10;69.80;;;0.21;65.01;96121.28;4965792;28;20031;-72
2021/03/09 00:04:40;;;;;;;20.75;14.10;;;2.10;69.60;;;0.15;65.01;96126.97;4968012;28;20039;-72
2021/03/09 00:07:06;;;;;;;18.25;13.75;;;2.00;69.60;;;0.13;65.26;96132.25;4979257;28;20074;-72
2021/03/09 00:09:32;;;;;;;19.75;13.88;;;2.00;69.50;;;0.13;65.39;96128.84;4941765;28;20074;-72
2021/03/09 00:11:58;;;;;;;20.40;14.10;;;1.90;69.40;;;0.11;64.90;96121.22;4965599;28;20039;-72
2021/03/09 00:14:23;;;;;;;22.60;14.68;;;1.90;69.40;;;0.08;65.14;96131.00;4939385;29;20035;-72
2021/03/09 00:16:49;;;;;;;21.42;14.25;;;1.90;69.40;;;0.05;65.10;96126.09;4950257;28;20068;-72
2021/03/09 00:19:15;;;;;;;19.05;13.85;;;1.90;69.40;;;0.03;65.23;96113.28;4934801;29;20035;-71
2021/03/09 00:21:40;;;;;;;19.67;13.52;;;1.80;69.30;;;0.02;65.37;96121.97;4949528;28;20090;-72
2021/03/09 00:24:07;;;;;;;19.40;13.95;;;1.90;69.30;;;-0.02;65.51;96116.22;4949035;28;20427;-72
2021/03/09 00:26:32;;;;;;;19.98;14.00;;;1.80;69.30;;;-0.05;65.40;96116.47;4965093;28;20594;-72
2021/03/09 00:28:58;;;;;;;19.35;13.93;;;1.80;69.40;;;-0.06;65.72;96120.00;4967588;28;20052;-72
2021/03/09 00:31:24;;;;;;;19.70;14.23;;;1.80;69.40;;;-0.09;65.32;96117.66;4923404;29;20187;-72
2021/03/09 00:33:49;;;;;;;20.73;14.60;;;1.80;69.40;;;-0.10;65.77;96113.44;4949269;28;20098;-72
2021/03/09 00:36:15;;;;;;;20.33;14.77;;;1.80;69.50;;;-0.11;65.55;96118.72;4933028;29;20063;-71
2021/03/09 00:38:41;;;;;;;21.38;14.48;;;1.70;69.60;;;-0.15;65.76;96113.00;4949120;28;20047;-72
2021/03/09 00:41:07;;;;;;;22.02;15.00;;;1.70;69.70;;;-0.18;65.85;96110.66;4964661;28;20070;-72
2021/03/09 00:43:32;;;;;;;21.80;15.60;;;1.70;69.70;;;-0.19;65.65;96109.00;4935435;29;20035;-72
2021/03/09 00:45:58;;;;;;;20.70;15.20;;;1.70;70.00;;;-0.21;66.04;96108.31;4932995;29;20115;-72
2021/03/09 00:48:24;;;;;;;21.30;15.48;;;1.60;70.30;;;-0.22;66.28;96093.75;4935188;29;20066;-72
2021/03/09 00:50:50;;;;;;;25.00;14.77;;;1.60;70.50;;;-0.24;66.34;96105.94;4932399;29;20693;-72
2021/03/09 00:53:15;;;;;;;22.85;15.13;;;1.60;70.50;;;-0.23;66.23;96101.59;4975244;23;20049;-69
2021/03/09 00:55:41;;;;;;;21.58;15.38;;;1.70;70.50;;;-0.26;66.39;96101.84;4938342;28;20122;-72
2021/03/09 00:58:07;;;;;;;24.27;15.65;;;1.60;70.50;;;-0.29;66.35;96090.00;4930766;28;20035;-72
2021/03/09 01:00:33;;;;;;;22.02;14.77;;;1.60;70.50;;;-0.30;66.70;96090.94;4967465;28;20117;-72
2021/03/09 01:02:58;;;;;;;20.80;15.02;;;1.50;70.60;;;-0.30;66.54;96096.09;4923545;28;20073;-72
2021/03/09 01:05:24;;;;;;;19.60;14.95;;;1.50;70.80;;;-0.33;66.69;96093.78;4961523;28;20030;-71
2021/03/09 01:07:50;;;;;;;23.17;15.43;;;1.50;70.70;;;-0.35;66.57;96087.91;4955554;28;20022;-72
2021/03/09 01:10:17;;;;;;;20.95;15.57;;;1.50;70.70;;;-0.37;67.02;96089.78;4963985;28;20462;-72
2021/03/09 01:12:43;;;;;;;23.40;15.75;;;1.50;70.80;;;-0.42;66.45;96085.00;4955298;28;20061;-72
2021/03/09 01:15:09;;;;;;;22.40;15.80;;;1.50;70.70;;;-0.41;66.60;96093.56;4949343;28;20057;-72
2021/03/09 01:17:35;;;;;;;23.10;15.15;;;1.40;70.60;;;-0.42;66.70;96086.75;4955262;28;20097;-72
2021/03/09 01:20:01;;;;;;;24.40;16.88;;;1.40;71.00;;;-0.45;66.67;96081.84;4955927;28;20140;-72
2021/03/09 01:22:27;;;;;;;23.27;16.25;;;1.30;71.10;;;-0.51;66.77;96066.81;4941163;28;20065;-72
2021/03/09 01:24:52;;;;;;;22.80;16.05;;;1.30;70.90;;;-0.50;66.95;96071.03;4955755;28;20046;-72
2021/03/09 01:27:18;;;;;;;22.17;15.75;;;1.30;71.00;;;-0.53;66.97;96079.03;4955844;28;20116;-72
2021/03/09 01:29:44;;;;;;;24.95;16.48;;;1.20;71.50;;;-0.58;66.84;96070.81;4956783;28;20037;-72
2021/03/09 01:32:10;;;;;;;23.00;16.17;;;1.20;71.70;;;-0.62;67.12;96070.25;4940201;28;20077;-72
2021/03/09 01:34:36;;;;;;;22.77;16.40;;;1.10;71.70;;;-0.66;67.34;96069.69;4968302;28;20039;-72
2021/03/09 01:37:03;;;;;;;24.20;17.35;;;1.20;71.60;;;-0.69;67.75;96064.72;4972090;28;20510;-72
2021/03/09 01:39:28;;;;;;;23.38;15.85;;;1.20;71.50;;;-0.70;67.40;96060.50;4969570;28;20045;-71
2021/03/09 01:41:54;;;;;;;23.35;16.80;;;1.20;71.50;;;-0.71;67.41;96058.03;4989729;28;20038;-71
2021/03/09 01:44:20;;;;;;;24.73;17.58;;;1.10;71.60;;;-0.76;68.02;96053.25;4961200;28;20030;-71
2021/03/09 01:46:46;;;;;;;23.27;16.80;;;1.10;72.00;;;-0.75;67.83;96044.56;4959302;28;20056;-71
2021/03/09 01:49:14;;;;;;;25.38;16.77;;;1.20;72.00;;;-0.75;68.29;96044.56;4959293;28;20046;-72
2021/03/09 01:51:40;;;;;;;25.63;17.65;;;1.10;72.10;;;-0.78;68.12;96044.81;4935001;28;20418;-71
2021/03/09 01:54:06;;;;;;;27.25;18.52;;;1.10;72.50;;;-0.79;68.23;96032.00;4958892;28;20038;-71
2021/03/09 01:56:31;;;;;;;22.83;17.15;;;1.10;72.00;;;-0.81;68.13;96034.72;4983769;28;20038;-71
2021/03/09 01:58:57;;;;;;;25.92;18.02;;;1.10;72.30;;;-0.83;68.16;96026.28;4944999;28;20046;-71
2021/03/09 02:01:23;;;;;;;24.17;16.60;;;1.10;72.20;;;-0.85;68.19;96028.16;4975368;28;20109;-71
2021/03/09 02:03:50;;;;;;;25.27;17.88;;;1.10;72.40;;;-0.88;68.28;96022.41;4943213;28;20095;-71
2021/03/09 02:06:16;;;;;;;22.42;16.85;;;1.00;72.00;;;-0.94;68.42;96021.13;4972624;28;20034;-72
2021/03/09 02:08:43;;;;;;;25.77;17.95;;;0.90;72.40;;;-0.98;68.79;96014.56;4974853;28;20038;-72
2021/03/09 02:11:52;;;;;;;23.85;17.52;;;0.90;72.50;;;-0.99;71.61;96018.91;4971011;28;21122;-72
2021/03/09 02:14:58;;;;;;;25.38;18.08;;;0.80;72.70;;;-1.01;71.37;96012.22;4974459;28;20579;-72
2021/03/09 02:17:45;;;;;;;24.45;17.30;;;0.80;73.00;;;-1.07;70.68;96007.53;4965029;28;20034;-71
2021/03/09 02:20:57;;;;;;;25.35;17.83;;;0.80;72.90;;;-1.09;71.46;96019.75;4959786;28;20227;-71
2021/03/09 02:24:07;;;;;;;22.75;16.48;;;0.80;72.90;;;-1.13;72.07;96021.75;4972721;28;20488;-72
2021/03/09 02:27:10;;;;;;;22.73;17.55;;;0.80;73.00;;;-1.15;71.95;96009.88;4962622;28;20041;-72
2021/03/09 02:29:48;;;;;;;21.95;16.65;;;0.80;73.10;;;-1.19;71.02;96003.31;4978359;28;20030;-72
2021/03/09 02:32:16;;;;;;;25.42;17.58;;;0.70;73.10;;;-1.23;69.08;96011.31;4974457;28;20053;-72
2021/03/09 02:34:53;;;;;;;24.67;18.55;;;0.70;72.70;;;-1.25;70.61;96000.28;4969183;28;20046;-72
2021/03/09 02:37:18;;;;;;;23.25;17.45;;;0.60;73.00;;;-1.30;69.04;95992.09;4958631;28;20759;-72
2021/03/09 02:39:45;;;;;;;23.63;17.10;;;0.60;73.30;;;-1.32;69.51;95998.31;4976176;28;20037;-72
2021/03/09 02:42:14;;;;;;;24.73;18.30;;;0.60;73.10;;;-1.32;69.58;95991.38;4967523;28;20506;-72
2021/03/09 02:44:39;;;;;;;24.58;16.67;;;0.50;73.30;;;-1.34;69.11;95995.84;4945017;28;20109;-72
2021/03/09 02:47:05;;;;;;;24.15;17.15;;;0.50;73.30;;;-1.34;69.09;96001.00;4941374;28;20042;-71
2021/03/09 02:49:33;;;;;;;22.25;17.17;;;0.50;73.00;;;-1.36;69.26;95997.72;4958169;28;20057;-72
2021/03/09 02:51:59;;;;;;;23.92;17.80;;;0.50;72.70;;;-1.41;69.40;95999.00;4961999;28;20039;-72
2021/03/09 02:54:24;;;;;;;24.10;18.27;;;0.40;73.00;;;-1.43;69.79;95996.53;4942312;28;20049;-72
2021/03/09 02:56:50;;;;;;;25.58;18.17;;;0.50;73.40;;;-1.44;69.49;95994.91;4953857;28;20030;-72
2021/03/09 02:59:17;;;;;;;24.63;18.13;;;0.40;73.20;;;-1.46;69.60;95995.97;4962115;28;20046;-72
2021/03/09 03:01:45;;;;;;;24.10;17.48;;;0.40;73.10;;;-1.50;70.01;95995.38;4938865;28;20114;-72
2021/03/09 03:04:15;;;;;;;24.17;17.73;;;0.30;73.10;;;-1.53;70.24;95989.66;4954743;28;20097;-71
2021/03/09 03:06:43;;;;;;;26.30;17.77;;;0.30;73.40;;;-1.57;70.02;95994.22;4946584;28;20057;-72
2021/03/09 03:09:08;;;;;;;24.88;17.40;;;0.30;73.30;;;-1.62;70.03;95998.88;4969867;28;20050;-71
2021/03/09 03:11:34;;;;;;;24.15;17.90;;;0.30;73.50;;;-1.59;69.71;95996.06;4972584;28;20050;-72
2021/03/09 03:14:04;;;;;;;24.20;17.83;;;0.30;73.60;;;-1.62;70.97;95996.31;4957631;28;20094;-72
2021/03/09 03:16:30;;;;;;;23.50;17.88;;;0.20;73.70;;;-1.65;70.18;95987.03;4957691;28;20469;-71
2021/03/09 03:18:55;;;;;;;25.15;18.48;;;0.30;73.70;;;-1.64;70.27;95978.38;4941547;28;20084;-72
2021/03/09 03:21:21;;;;;;;23.52;17.58;;;0.20;73.70;;;-1.63;70.18;95985.16;4938450;28;20198;-72
2021/03/09 03:23:47;;;;;;;26.77;18.95;;;0.30;73.70;;;-1.65;70.41;95986.22;4947110;28;20038;-72
2021/03/09 03:26:13;;;;;;;23.27;17.63;;;0.30;73.60;;;-1.66;70.83;95987.16;4969167;28;20053;-71
2021/03/09 03:28:43;;;;;;;23.65;17.98;;;0.30;73.50;;;-1.66;70.94;95984.59;4972997;28;20039;-72
2021/03/09 03:31:09;;;;;;;24.73;17.67;;;0.30;73.50;;;-1.66;70.62;95990.56;4950407;28;20038;-71
2021/03/09 03:33:34;;;;;;;25.65;17.08;;;0.30;73.40;;;-1.68;70.23;95992.44;4973487;28;20085;-72
2021/03/09 03:36:04;;;;;;;26.98;18.30;;;0.20;73.30;;;-1.68;70.64;95991.63;4957471;28;20034;-72
2021/03/09 03:38:34;;;;;;;24.88;17.60;;;0.20;73.40;;;-1.70;70.77;95989.16;4973535;28;20031;-72
2021/03/09 03:41:01;;;;;;;22.95;16.98;;;0.20;73.40;;;-1.74;70.54;95987.75;4957299;28;20129;-72
2021/03/09 03:43:26;;;;;;;22.77;17.38;;;0.20;73.20;;;-1.76;70.58;95983.66;4958445;28;20065;-69
2021/03/09 03:45:52;;;;;;;27.10;17.08;;;0.20;73.30;;;-1.76;70.46;95989.63;4979921;28;20406;-66
2021/03/09 03:48:18;;;;;;;23.75;17.65;;;0.10;73.40;;;-1.78;70.55;95991.50;4968606;28;20038;-65
2021/03/09 03:50:44;;;;;;;23.88;16.77;;;0.20;73.40;;;-1.77;70.48;95989.75;4949395;28;20108;-66
2021/03/09 03:53:33;;;;;;;24.98;18.20;;;0.10;73.50;;;-1.79;71.84;95989.06;4939998;28;20046;-67
2021/03/09 03:56:35;;;;;;;23.88;18.00;;;0.10;73.20;;;-1.80;72.47;95992.56;4958569;28;20042;-69
2021/03/09 03:59:05;;;;;;;;;;;0.10;73.40;;;-1.83;72.77;95987.63;4974244;28;20042;-69
2021/03/09 04:01:31;;;;;;;24.98;17.10;;;0.10;73.60;;;-1.87;70.18;95987.84;4975742;28;19924;-69
2021/03/09 04:03:58;;;;;;;24.65;17.88;;;0.10;73.60;;;-1.87;69.96;95977.53;4972625;28;20034;-69
2021/03/09 04:06:28;;;;;;;23.80;17.08;;;0.10;73.60;;;-1.89;71.00;95974.25;4982269;28;20050;-69
2021/03/09 04:08:58;;;;;;;25.80;16.67;;;0.10;73.60;;;-1.89;71.19;95974.25;4989614;28;20048;-69
2021/03/09 04:11:23;;;;;;;24.48;17.20;;;0.10;73.40;;;-1.91;70.29;95975.31;4942393;28;20039;-69
2021/03/09 04:13:49;;;;;;;26.13;17.95;;;0.10;73.50;;;-1.90;70.18;95982.09;4979882;28;20708;-69
2021/03/09 04:16:15;;;;;;;25.50;16.88;;;0.10;73.30;;;-1.92;70.32;95979.66;4952855;28;20129;-69
2021/03/09 04:18:41;;;;;;;24.60;17.17;;;0.10;73.40;;;-1.90;70.31;95972.63;4951192;28;20042;-69
2021/03/09 04:21:06;;;;;;;27.05;17.90;;;0.10;73.70;;;-1.90;70.91;95967.47;4939737;28;20045;-69
2021/03/09 04:23:32;;;;;;;34.85;22.33;;;0.10;74.30;;;-1.87;71.04;95967.22;4956035;28;20529;-69
2021/03/09 04:25:59;;;;;;;57.35;36.72;;;0.20;75.00;;;-1.84;71.47;95966.16;4948943;28;20041;-69
2021/03/09 04:28:24;;;;;;;38.15;25.40;;;0.20;75.60;;;-1.79;71.53;95968.44;4957490;28;20027;-69
2021/03/09 04:30:50;;;;;;;38.30;25.75;;;0.30;76.00;;;-1.78;72.35;95967.50;4988630;28;20121;-69
2021/03/09 04:33:17;;;;;;;52.13;33.80;;;0.30;76.30;;;-1.75;72.06;95969.81;4958928;28;20061;-69
2021/03/09 04:35:43;;;;;;;48.35;30.13;;;0.40;76.40;;;-1.70;72.49;95962.56;4937070;28;20027;-70
2021/03/09 04:38:08;;;;;;;33.45;22.20;;;0.40;76.50;;;-1.70;72.36;95973.69;4951882;28;20041;-69
2021/03/09 04:40:34;;;;;;;36.72;20.65;;;0.40;76.70;;;-1.65;72.38;95971.56;4940909;28;20049;-69
2021/03/09 04:43:00;;;;;;;31.23;20.42;;;0.40;76.50;;;-1.63;72.43;95968.88;4962321;28;20094;-69
2021/03/09 04:45:26;;;;;;;29.90;19.85;;;0.50;76.50;;;-1.59;72.53;95975.44;4941296;28;20030;-69
2021/03/09 04:47:52;;;;;;;30.83;19.90;;;0.50;76.60;;;-1.58;72.93;95977.09;4972241;28;20557;-69
2021/03/09 04:50:17;;;;;;;30.92;20.08;;;0.50;76.30;;;-1.57;72.46;95976.16;4964752;28;20581;-68
2021/03/09 04:52:46;;;;;;;30.15;19.75;;;0.50;76.40;;;-1.56;73.53;95975.22;4965689;28;20049;-68
2021/03/09 04:55:14;;;;;;;28.70;19.60;;;0.60;76.40;;;-1.52;73.46;95981.78;4944572;28;20163;-65
2021/03/09 04:57:43;;;;;;;28.48;19.13;;;0.50;76.50;;;-1.51;73.62;95975.69;4971599;28;20491;-69
2021/03/09 05:00:14;;;;;;;32.40;20.90;;;0.60;76.20;;;-1.48;74.04;95978.03;4943107;28;20037;-69
2021/03/09 05:02:45;;;;;;;30.50;19.98;;;0.60;76.40;;;-1.47;73.90;95978.84;4991718;28;20034;-70
2021/03/09 05:05:11;;;;;;;29.85;19.73;;;0.60;76.40;;;-1.48;72.76;95978.03;4975150;28;20129;-69
2021/03/09 05:07:37;;;;;;;31.95;20.65;;;0.60;76.40;;;-1.47;72.78;95977.09;4963769;28;20039;-69
2021/03/09 05:10:04;;;;;;;30.85;20.15;;;0.60;76.50;;;-1.44;73.07;95983.75;4941713;28;20049;-70
2021/03/09 05:12:30;;;;;;;31.65;19.58;;;0.60;76.30;;;-1.44;73.00;95978.59;4955269;28;20085;-70
2021/03/09 05:14:56;;;;;;;34.03;22.05;;;0.60;76.30;;;-1.43;73.02;95978.47;4941976;28;20034;-70
2021/03/09 05:17:22;;;;;;;58.25;37.90;;;0.60;76.20;;;-1.40;73.11;95970.50;4971468;28;20041;-69
2021/03/09 05:19:48;;;;;;;41.33;27.15;;;0.70;77.40;;;-1.38;72.99;95968.63;4971940;28;20449;-69
2021/03/09 05:22:14;;;;;;;37.67;21.85;;;0.70;76.90;;;-1.38;73.34;95962.66;4971516;28;20120;-70
2021/03/09 05:24:39;;;;;;;35.55;21.15;;;0.70;76.40;;;-1.39;73.34;95966.97;4971773;28;20042;-70
2021/03/09 05:27:05;;;;;;;33.35;20.58;;;0.70;76.20;;;-1.40;72.96;95970.50;4954876;28;20038;-69
2021/03/09 05:29:31;;;;;;;33.08;20.75;;;0.70;76.10;;;-1.42;73.02;95972.38;4967849;28;20704;-69
2021/03/09 05:31:57;;;;;;;39.05;24.20;;;0.70;76.10;;;-1.40;73.13;95967.09;4952432;28;20034;-69
2021/03/09 05:34:23;;;;;;;54.70;35.05;;;0.70;76.40;;;-1.39;73.40;95977.31;4936307;28;20129;-69
2021/03/09 05:36:49;;;;;;;64.85;40.90;;;0.80;76.90;;;-1.35;73.36;95973.56;4952234;28;20594;-69
2021/03/09 05:39:14;;;;;;;64.47;39.85;;;0.90;76.70;;;-1.31;73.43;95974.97;4936088;28;20035;-69
2021/03/09 05:41:40;;;;;;;39.88;21.88;;;0.90;76.50;;;-1.29;72.92;95977.44;4936337;28;20101;-69
2021/03/09 05:44:06;;;;;;;34.58;21.48;;;0.90;75.90;;;-1.31;72.76;95969.00;4936140;28;20169;-69
2021/03/09 05:46:32;;;;;;;34.63;21.33;;;0.90;75.50;;;-1.32;73.30;95977.66;4936460;28;20034;-70
2021/03/09 05:48:58;;;;;;;34.58;21.65;;;0.80;75.70;;;-1.34;73.15;95977.78;4951942;28;20594;-69
2021/03/09 05:51:25;;;;;;;40.63;22.00;;;0.80;75.80;;;-1.34;73.10;95980.38;4920387;28;20502;-70
2021/03/09 05:53:50;;;;;;;38.58;22.15;;;0.80;75.50;;;-1.34;73.09;95977.78;4936885;28;20179;-69
2021/03/09 05:56:16;;;;;;;32.38;20.90;;;0.70;75.60;;;-1.33;73.18;95981.19;4955035;28;20042;-69
2021/03/09 05:58:42;;;;;;;36.40;22.05;;;0.80;75.40;;;-1.34;72.92;95974.41;4939589;28;20138;-70
2021/03/09 06:01:08;;;;;;;33.63;20.90;;;0.80;75.50;;;-1.34;73.00;95979.56;4962712;28;20411;-69
2021/03/09 06:03:34;;;;;;;33.95;21.33;;;0.90;75.90;;;-1.31;73.35;95974.16;4955329;28;20034;-69
2021/03/09 06:05:59;;;;;;;36.00;21.23;;;0.90;75.50;;;-1.30;73.21;95979.19;4971325;28;20045;-70
2021/03/09 06:08:25;;;;;;;51.08;29.80;;;1.00;75.30;;;-1.28;73.00;95985.03;4939721;28;20077;-69
2021/03/09 06:10:51;;;;;;;53.67;33.10;;;1.00;75.00;;;-1.22;73.08;95983.75;4936750;28;20031;-69
2021/03/09 06:13:33;;;;;;;47.55;27.85;;;1.10;75.00;;;-1.21;75.27;95977.63;4951226;28;20035;-70
2021/03/09 06:15:59;;;;;;;171.60;51.47;;;1.10;74.70;;;-1.17;72.96;95985.97;4971240;28;20034;-69
2021/03/09 06:18:25;;;;;;;67.57;29.65;;;1.10;74.90;;;-1.14;73.04;95971.06;4954687;28;20026;-69
2021/03/09 06:21:15;;;;;;;41.90;21.10;;;1.20;74.80;;;-1.07;75.08;95979.16;4954691;28;20035;-69
2021/03/09 06:23:44;;;;;;;38.97;21.88;;;1.20;74.70;;;-1.03;73.63;95983.13;4962541;28;20402;-68
2021/03/09 06:26:36;;;;;;;33.08;20.63;;;1.30;74.60;;;-0.96;75.58;95984.28;4944636;28;20037;-69
2021/03/09 06:29:09;;;;;;;35.42;20.45;;;1.40;74.40;;;-0.91;74.33;95982.16;4958326;28;20038;-69
2021/03/09 06:31:34;;;;;;;33.00;21.15;;;1.40;74.40;;;-0.84;73.19;95978.16;4974476;28;20040;-69
2021/03/09 06:34:23;;;;;;;32.03;20.17;;;1.50;74.10;;;-0.74;74.61;95984.22;4941134;28;20061;-69
2021/03/09 06:37:13;;;;;;;35.83;21.02;;;1.60;73.70;;;-0.66;74.44;95987.03;4939626;28;20056;-70
2021/03/09 06:40:03;;;;;;;32.40;18.88;;;1.80;73.30;;;-0.54;74.19;95989.56;4939728;28;20109;-69
2021/03/09 06:42:38;;;;;;;32.90;19.92;;;1.90;72.80;;;-0.46;72.77;95984.56;4958926;28;20105;-69
2021/03/09 06:45:08;;;;;;;33.28;20.33;;;2.00;72.20;;;-0.36;72.96;95983.72;4971554;28;20042;-70
2021/03/09 06:47:44;;;;;;;59.03;34.47;;;2.20;71.90;;;-0.23;73.65;95980.94;4971617;28;20038;-70
2021/03/09 06:50:18;;;;;;;50.00;30.80;;;2.30;71.50;;;-0.11;72.55;95987.69;4956520;28;20477;-70
2021/03/09 06:52:58;;;;;;;33.45;19.08;;;2.50;70.80;;;0.04;73.45;95997.75;4972060;28;20074;-70
2021/03/09 06:55:32;;;;;;;33.20;19.65;;;2.70;70.20;;;0.15;72.96;95993.31;4955479;28;20039;-69
2021/03/09 06:58:12;;;;;;;30.45;18.60;;;2.90;69.50;;;0.32;72.28;95994.50;4971088;28;20073;-69
2021/03/09 07:00:41;;;;;;;36.00;19.33;;;3.10;68.40;;;0.46;71.89;95996.75;4978241;28;20041;-70
2021/03/09 07:03:32;;;;;;;30.98;19.13;;;3.40;67.60;;;0.58;71.67;96000.06;4938142;28;20055;-69
2021/03/09 07:05:59;;;;;;;30.02;18.02;;;3.50;66.80;;;0.71;71.52;95999.84;4970910;28;20031;-70
2021/03/09 07:08:25;;;;;;;31.02;18.50;;;3.70;66.20;;;0.85;70.55;95997.69;4954693;28;20101;-70
2021/03/09 07:10:51;;;;;;;28.23;18.05;;;4.00;65.30;;;1.02;70.82;96009.19;4939206;28;20421;-70
2021/03/09 07:13:21;;;;;;;25.65;17.17;;;4.40;63.20;;;1.18;70.60;96006.94;4954363;28;20031;-69
2021/03/09 07:15:47;;;;;;;29.52;18.13;;;4.60;62.80;;;1.33;70.50;96007.34;4942302;28;20558;-69
2021/03/09 07:18:12;;;;;;;30.73;19.00;;;4.80;62.10;;;1.51;70.39;96010.09;4957573;28;20050;-69
2021/03/09 07:20:38;;;;;;;27.10;17.63;;;4.90;61.50;;;1.66;69.65;96013.94;4958288;28;20031;-69
2021/03/09 07:23:04;;;;;;;27.23;16.60;;;5.00;61.70;;;1.80;69.80;96016.09;4941605;28;20085;-70
2021/03/09 07:25:30;;;;;;;30.13;18.48;;;5.10;60.70;;;1.99;69.13;96014.44;4958231;28;20038;-69
2021/03/09 07:27:57;;;;;;;28.33;16.92;;;5.30;59.80;;;2.23;69.34;96011.41;4957827;28;20038;-69
2021/03/09 07:30:25;;;;;;;26.98;17.05;;;5.90;58.30;;;2.53;69.40;96013.00;4946061;28;20031;-70
2021/03/09 07:32:56;;;;;;;27.38;17.20;;;6.60;56.10;;;2.83;67.38;96015.34;4971646;28;20039;-69
2021/03/09 07:35:22;;;;;;;28.38;16.95;;;7.10;53.60;;;3.14;68.77;96010.66;4938143;28;20070;-70
2021/03/09 07:37:50;;;;;;;23.55;16.48;;;7.60;51.90;;;3.42;67.51;96011.50;4970650;28;20031;-70
2021/03/09 07:40:35;;;;;;;26.35;16.15;;;7.90;50.40;;;3.76;64.16;96008.22;4970318;28;20034;-70
2021/03/09 07:43:01;;;;;;;24.83;16.67;;;8.30;49.80;;;4.05;66.90;96007.97;4969981;28;20037;-70
2021/03/09 07:45:34;;;;;;;24.92;16.00;;;8.70;47.70;;;4.40;63.60;96001.88;4984434;28;20027;-70
2021/03/09 07:48:04;;;;;;;22.83;15.40;;;9.40;46.60;;;4.81;63.78;96006.38;4974664;28;20046;-70
2021/03/09 07:50:41;;;;;;;23.90;14.95;;;10.00;44.80;;;5.21;60.59;96002.31;4973562;28;20034;-71
2021/03/09 07:53:17;;;;;;;21.60;15.20;;;10.70;41.80;;;5.66;59.77;95993.25;4972407;28;20030;-71
2021/03/09 07:56:09;;;;;;;24.60;15.73;;;11.50;39.80;;;6.17;59.44;96001.81;4957007;28;20026;-70
2021/03/09 07:58:35;;;;;;;23.70;14.98;;;12.10;38.80;;;6.66;63.25;96003.38;4971922;28;20034;-70
2021/03/09 08:01:05;;;;;;;26.70;15.07;;;12.70;37.30;;;7.13;60.93;95997.34;4933050;28;20427;-71
2021/03/09 08:03:35;;;;;;;20.50;14.40;;;13.40;36.40;;;7.54;60.90;95999.78;4976843;28;20030;-71
2021/03/09 08:06:15;;;;;;;23.75;14.68;;;13.60;35.20;;;7.90;53.85;95992.97;4966847;28;20498;-70
2021/03/09 08:08:53;;;;;;;24.08;15.50;;;14.20;34.00;;;8.26;52.90;95989.75;4925732;28;20026;-71
2021/03/09 08:11:19;;;;;;;20.30;14.38;;;14.70;33.40;;;8.64;58.48;95992.41;4940566;28;20035;-68
2021/03/09 08:13:50;;;;;;;20.65;14.57;;;15.40;32.20;;;8.95;54.54;95987.78;4973178;28;20533;-69
2021/03/09 08:16:24;;;;;;;26.40;18.08;;;15.70;31.40;;;9.38;51.84;95991.38;4941822;28;20103;-69
2021/03/09 08:19:09;;;;;;;30.65;21.38;;;16.30;30.80;;;9.77;49.35;95985.75;4972905;28;20437;-69
2021/03/09 08:22:01;;;;;;;24.00;15.43;;;16.80;29.90;;;10.08;48.59;95982.81;4940699;28;20551;-69
2021/03/09 08:24:47;;;;;;;19.40;14.43;;;17.20;28.80;;;10.48;47.41;95987.63;4972929;28;20053;-70
2021/03/09 08:27:28;;;;;;;20.17;14.25;;;17.70;28.30;;;10.72;46.58;95989.81;4989064;28;20383;-69
2021/03/09 08:29:54;;;;;;;22.08;14.50;;;17.70;28.00;;;10.89;51.91;95988.53;4955944;28;20384;-70
2021/03/09 08:32:30;;;;;;;20.83;13.65;;;18.00;27.90;;;11.13;45.90;95981.16;4937402;28;20034;-70
2021/03/09 08:35:11;;;;;;;18.75;13.35;;;18.20;27.60;;;11.40;45.23;95982.09;4936529;28;20466;-70
2021/03/09 08:37:37;;;;;;;20.77;13.93;;;18.50;27.20;;;11.56;50.10;95987.03;4953099;28;20035;-70
2021/03/09 08:40:05;;;;;;;21.90;14.23;;;18.50;27.00;;;11.76;48.19;95992.31;4937390;28;20042;-70
2021/03/09 08:43:02;;;;;;;22.52;15.38;;;18.70;27.00;;;11.93;43.22;95983.06;4938633;28;20118;-71
2021/03/09 08:45:38;;;;;;;25.27;17.83;;;19.00;26.30;;;12.18;43.91;95978.03;4971873;28;20046;-70
2021/03/09 08:48:04;;;;;;;21.70;15.40;;;19.10;26.10;;;12.40;47.02;95981.28;4972176;28;20038;-70
2021/03/09 08:50:56;;;;;;;20.80;14.88;;;19.10;26.30;;;12.66;40.87;95988.38;4956491;28;20128;-71
2021/03/09 08:53:29;;;;;;;19.13;14.25;;;19.20;25.20;;;12.78;41.98;95990.22;4934260;28;20050;-70
2021/03/09 08:55:59;;;;;;;22.02;15.43;;;19.40;25.00;;;12.82;42.71;95983.50;4949103;28;20041;-71
2021/03/09 08:58:25;;;;;;;18.95;15.18;;;19.00;25.50;;;12.88;46.00;95987.13;4936969;28;20039;-70
2021/03/09 09:00:51;;;;;;;20.98;14.88;;;19.10;25.50;;;13.01;45.01;95981.84;4963049;28;20025;-70
2021/03/09 09:03:39;;;;;;;21.55;14.52;;;19.20;25.60;;;13.21;39.98;95981.03;4974437;28;20026;-72
2021/03/09 09:06:05;;;;;;;20.70;14.73;;;19.30;25.20;;;13.35;43.86;95978.13;4960455;28;20111;-70
2021/03/09 09:08:30;;;;;;;18.02;13.88;;;18.90;25.70;;;13.47;43.62;95976.44;4975241;28;20030;-70
2021/03/09 09:10:57;;;;;;;21.27;14.85;;;19.00;25.40;;;13.65;42.91;95969.66;4952265;28;20081;-71
2021/03/09 09:13:30;;;;;;;22.58;14.60;;;18.80;25.80;;;13.74;38.70;95976.31;4952710;28;20058;-70
2021/03/09 09:15:56;;;;;;;20.15;14.50;;;18.70;26.10;;;13.81;42.17;95971.81;4936718;28;20041;-71
2021/03/09 09:18:22;;;;;;;21.17;14.57;;;19.00;26.00;;;13.96;42.00;95974.16;4952230;28;20395;-69
2021/03/09 09:20:48;;;;;;;22.38;15.48;;;19.10;25.70;;;14.09;41.07;95969.59;4952597;28;20442;-71
2021/03/09 09:23:21;;;;;;;28.65;20.13;;;18.80;25.70;;;14.10;41.35;95965.94;4951649;28;20023;-70
2021/03/09 09:25:54;;;;;;;21.90;15.68;;;19.10;26.00;;;14.17;37.71;95965.06;4936808;28;20046;-70
2021/03/09 09:28:38;;;;;;;18.35;14.10;;;19.10;25.80;;;14.41;37.52;95956.34;4936138;28;20073;-71
2021/03/09 09:31:12;;;;;;;20.33;14.68;;;19.20;25.80;;;14.64;37.51;95972.47;4954561;28;20062;-70
2021/03/09 09:33:38;;;;;;;22.42;14.50;;;19.50;25.70;;;14.89;39.55;95967.13;4972125;28;20569;-70
2021/03/09 09:36:04;;;;;;;18.00;14.63;;;19.60;25.70;;;15.01;38.74;95962.75;4962677;28;20042;-70
2021/03/09 09:38:30;;;;;;;18.75;13.82;;;19.80;25.40;;;15.00;38.58;95966.41;4952081;28;20705;-71
2021/03/09 09:40:59;;;;;;;22.88;15.93;;;19.10;25.70;;;15.05;37.11;95957.81;4920051;28;20142;-70
2021/03/09 09:43:33;;;;;;;19.05;14.77;;;19.40;25.50;;;15.11;36.20;95962.22;4936616;28;20051;-70
2021/03/09 09:46:04;;;;;;;22.50;15.95;;;19.60;25.20;;;15.27;35.50;95956.34;4937259;28;20098;-70
2021/03/09 09:48:31;;;;;;;;;;;19.80;25.30;;;15.38;35.29;95957.44;4920560;28;20359;-70
2021/03/09 09:50:59;;;;;;;17.45;13.82;;;20.30;24.40;;;15.66;36.90;95959.56;4946412;28;19918;-70
2021/03/09 09:53:42;;;;;;;17.83;13.85;;;20.50;24.30;;;15.83;33.88;95946.47;4939040;28;20395;-70
2021/03/09 09:56:13;;;;;;;19.15;13.45;;;20.90;23.40;;;15.96;35.09;95942.84;4956490;28;20038;-70
2021/03/09 09:59:08;;;;;;;17.75;13.00;;;21.30;23.40;;;16.26;33.45;95940.94;4943026;28;20035;-70
2021/03/09 10:01:38;;;;;;;18.45;14.23;;;22.10;22.80;;;16.56;37.05;95943.53;4956058;28;20057;-70
2021/03/09 10:04:07;;;;;;;19.00;13.07;;;22.70;21.80;;;16.86;35.09;95948.78;5011350;28;20042;-70
2021/03/09 10:06:49;;;;;;;19.27;13.70;;;23.20;20.90;;;17.34;32.89;95942.34;4991810;28;20061;-70
2021/03/09 10:09:18;;;;;;;22.15;15.30;;;23.90;20.70;;;17.89;35.42;95941.84;4971260;28;20031;-70
2021/03/09 10:12:05;;;;;;;30.65;24.42;;;24.50;19.40;;;18.40;30.61;95937.41;4971771;28;20410;-70
2021/03/09 10:14:32;;;;;;;17.25;13.35;;;25.00;19.00;;;18.87;35.19;95946.69;4955117;28;20188;-71
2021/03/09 10:16:58;;;;;;;15.27;12.70;;;26.20;18.30;;;19.42;34.52;95943.13;4965779;28;20110;-70
2021/03/09 10:19:24;;;;;;;13.80;12.32;;;27.10;17.70;;;19.91;34.10;95935.19;4974279;28;20038;-70
2021/03/09 10:21:54;;;;;;;17.42;11.93;;;27.60;16.90;;;20.41;29.16;95936.75;4974100;28;20030;-70
2021/03/09 10:24:22;;;;;;;16.85;12.18;;;27.80;16.50;;;20.60;31.81;95931.84;4974132;28;20036;-70
2021/03/09 10:26:49;;;;;;;23.73;16.33;;;28.10;16.00;;;20.96;31.44;95940.88;4958184;28;20043;-70